sensor_id;sensor_type;location;lat;lon;timestamp;temperature;humidity
13336;DHT22;6737;51.480;11.962;2023-07-20T00:01:25;16.00;99.90
13336;DHT22;6737;51.480;11.962;2023-07-20T00:03:51;16.00;99.90
13336;DHT22;6737;51.480;11.962;2023-07-20T00:06:24;15.90;99.90
13336;DHT22;6737;51.480;11.962;2023-07-20T00:08:51;15.90;99.90
13336;DHT22;6737;51.480;11.962;2023-07-20T00:11:17;15.80;99.90
13336;DHT22;6737;51.480;11.962;2023-07-20T00:13:43;15.90;99.90
13336;DHT22;6737;51.480;11.962;2023-07-20T00:16:09;16.00;99.90
13336;DHT22;6737;51.480;11.962;2023-07-20T00:18:35;16.00;99.90
13336;DHT22;6737;51.480;11.962;2023-07-20T00:21:01;16.00;99.90
13336;DHT22;6737;51.480;11.962;2023-07-20T00:23:27;16.00;99.90
13336;DHT22;6737;51.480;11.962;2023-07-20T00:25:53;16.00;99.90
13336;DHT22;6737;51.480;11.962;2023-07-20T00:28:20;16.00;99.90
13336;DHT22;6737;51.480;11.962;2023-07-20T00:30:46;16.00;99.90
13336;DHT22;6737;51.480;11.962;2023-07-20T00:33:12;16.00;99.90
13336;DHT22;6737;51.480;11.962;2023-07-20T00:35:39;16.00;99.90
13336;DHT22;6737;51.480;11.962;2023-07-20T00:38:05;16.00;99.90
13336;DHT22;6737;51.480;11.962;2023-07-20T00:40:40;16.00;99.90
13336;DHT22;6737;51.480;11.962;2023-07-20T00:43:07;16.00;99.90
13336;DHT22;6737;51.480;11.962;2023-07-20T00:45:34;16.00;99.90
13336;DHT22;6737;51.480;11.962;2023-07-20T00:48:02;16.10;99.90
13336;DHT22;6737;51.480;11.962;2023-07-20T00:50:29;16.00;99.90
13336;DHT22;6737;51.480;11.962;2023-07-20T00:52:56;16.00;99.90
13336;DHT22;6737;51.480;11.962;2023-07-20T00:55:23;16.00;99.90
13336;DHT22;6737;51.480;11.962;2023-07-20T00:57:50;16.00;99.90
13336;DHT22;6737;51.480;11.962;2023-07-20T01:00:17;16.00;99.90
13336;DHT22;6737;51.480;11.962;2023-07-20T01:02:44;16.10;99.90
13336;DHT22;6737;51.480;11.962;2023-07-20T01:05:09;16.00;99.90
13336;DHT22;6737;51.480;11.962;2023-07-20T01:07:53;16.00;99.90
13336;DHT22;6737;51.480;11.962;2023-07-20T01:10:33;16.00;99.90
13336;DHT22;6737;51.480;11.962;2023-07-20T01:13:02;15.90;99.90
13336;DHT22;6737;51.480;11.962;2023-07-20T01:15:28;15.90;99.90
13336;DHT22;6737;51.480;11.962;2023-07-20T01:17:54;15.90;99.90
13336;DHT22;6737;51.480;11.962;2023-07-20T01:20:21;15.90;99.90
13336;DHT22;6737;51.480;11.962;2023-07-20T01:30:58;15.90;99.90
13336;DHT22;6737;51.480;11.962;2023-07-20T01:33:25;15.80;99.90
13336;DHT22;6737;51.480;11.962;2023-07-20T01:35:57;15.90;99.90
13336;DHT22;6737;51.480;11.962;2023-07-20T01:38:24;15.90;99.90
13336;DHT22;6737;51.480;11.962;2023-07-20T01:40:50;15.80;99.90
13336;DHT22;6737;51.480;11.962;2023-07-20T01:43:17;15.90;99.90
13336;DHT22;6737;51.480;11.962;2023-07-20T01:45:44;15.80;99.90
13336;DHT22;6737;51.480;11.962;2023-07-20T01:48:10;15.80;99.90
13336;DHT22;6737;51.480;11.962;2023-07-20T01:50:36;15.80;99.90
13336;DHT22;6737;51.480;11.962;2023-07-20T01:53:02;15.80;99.90
13336;DHT22;6737;51.480;11.962;2023-07-20T01:55:27;15.90;99.90
13336;DHT22;6737;51.480;11.962;2023-07-20T01:57:55;15.90;99.90
13336;DHT22;6737;51.480;11.962;2023-07-20T02:00:21;15.90;99.90
13336;DHT22;6737;51.480;11.962;2023-07-20T02:02:50;15.90;99.90
13336;DHT22;6737;51.480;11.962;2023-07-20T02:05:16;15.90;99.90
13336;DHT22;6737;51.480;11.962;2023-07-20T02:07:42;15.90;99.90
13336;DHT22;6737;51.480;11.962;2023-07-20T02:10:09;15.90;99.90
13336;DHT22;6737;51.480;11.962;2023-07-20T02:12:35;15.90;99.90
13336;DHT22;6737;51.480;11.962;2023-07-20T02:15:02;15.80;99.90
13336;DHT22;6737;51.480;11.962;2023-07-20T02:17:28;15.90;99.90
13336;DHT22;6737;51.480;11.962;2023-07-20T02:19:55;15.90;99.90
13336;DHT22;6737;51.480;11.962;2023-07-20T02:22:21;15.90;99.90
13336;DHT22;6737;51.480;11.962;2023-07-20T02:24:47;15.90;99.90
13336;DHT22;6737;51.480;11.962;2023-07-20T02:27:13;15.90;99.90
13336;DHT22;6737;51.480;11.962;2023-07-20T02:29:41;16.00;99.90
13336;DHT22;6737;51.480;11.962;2023-07-20T02:32:08;16.00;99.90
13336;DHT22;6737;51.480;11.962;2023-07-20T02:34:35;16.00;99.90
13336;DHT22;6737;51.480;11.962;2023-07-20T02:37:01;16.00;99.90
13336;DHT22;6737;51.480;11.962;2023-07-20T02:39:28;16.00;99.90
13336;DHT22;6737;51.480;11.962;2023-07-20T02:41:54;15.90;99.90
13336;DHT22;6737;51.480;11.962;2023-07-20T02:44:20;15.90;99.90
13336;DHT22;6737;51.480;11.962;2023-07-20T02:46:46;15.90;99.90
13336;DHT22;6737;51.480;11.962;2023-07-20T02:49:12;15.90;99.90
13336;DHT22;6737;51.480;11.962;2023-07-20T02:51:38;15.90;99.90
13336;DHT22;6737;51.480;11.962;2023-07-20T02:54:04;15.90;99.90
13336;DHT22;6737;51.480;11.962;2023-07-20T02:56:29;15.90;99.90
13336;DHT22;6737;51.480;11.962;2023-07-20T02:58:55;15.90;99.90
13336;DHT22;6737;51.480;11.962;2023-07-20T03:01:21;15.90;99.90
13336;DHT22;6737;51.480;11.962;2023-07-20T03:03:47;15.90;99.90
13336;DHT22;6737;51.480;11.962;2023-07-20T03:06:16;15.80;99.90
13336;DHT22;6737;51.480;11.962;2023-07-20T03:08:43;15.80;99.90
13336;DHT22;6737;51.480;11.962;2023-07-20T03:11:16;15.80;99.90
13336;DHT22;6737;51.480;11.962;2023-07-20T03:13:43;15.80;99.90
13336;DHT22;6737;51.480;11.962;2023-07-20T03:16:10;15.80;99.90
13336;DHT22;6737;51.480;11.962;2023-07-20T03:18:37;15.80;99.90
13336;DHT22;6737;51.480;11.962;2023-07-20T03:21:04;15.70;99.90
13336;DHT22;6737;51.480;11.962;2023-07-20T03:23:31;15.70;99.90
13336;DHT22;6737;51.480;11.962;2023-07-20T03:25:57;15.70;99.90
13336;DHT22;6737;51.480;11.962;2023-07-20T03:28:23;15.70;99.90
13336;DHT22;6737;51.480;11.962;2023-07-20T03:30:55;15.70;99.90
13336;DHT22;6737;51.480;11.962;2023-07-20T03:33:25;15.70;99.90
13336;DHT22;6737;51.480;11.962;2023-07-20T03:35:52;15.70;99.90
13336;DHT22;6737;51.480;11.962;2023-07-20T03:38:18;15.80;99.90
13336;DHT22;6737;51.480;11.962;2023-07-20T03:43:23;15.80;99.90
13336;DHT22;6737;51.480;11.962;2023-07-20T03:45:50;15.80;99.90
13336;DHT22;6737;51.480;11.962;2023-07-20T03:48:21;15.80;99.90
13336;DHT22;6737;51.480;11.962;2023-07-20T03:50:48;15.70;99.90
13336;DHT22;6737;51.480;11.962;2023-07-20T03:53:15;15.70;99.90
13336;DHT22;6737;51.480;11.962;2023-07-20T03:55:44;15.70;99.90
13336;DHT22;6737;51.480;11.962;2023-07-20T03:58:11;15.70;99.90
13336;DHT22;6737;51.480;11.962;2023-07-20T04:00:37;15.70;99.90
13336;DHT22;6737;51.480;11.962;2023-07-20T04:03:03;15.80;99.90
13336;DHT22;6737;51.480;11.962;2023-07-20T04:05:29;15.70;99.90
13336;DHT22;6737;51.480;11.962;2023-07-20T04:07:55;15.80;99.90
13336;DHT22;6737;51.480;11.962;2023-07-20T04:10:21;15.80;99.90
13336;DHT22;6737;51.480;11.962;2023-07-20T04:12:47;15.80;99.90
13336;DHT22;6737;51.480;11.962;2023-07-20T04:15:13;15.80;99.90
13336;DHT22;6737;51.480;11.962;2023-07-20T04:17:40;15.80;99.90
13336;DHT22;6737;51.480;11.962;2023-07-20T04:20:10;15.80;99.90
13336;DHT22;6737;51.480;11.962;2023-07-20T04:22:36;15.80;99.90
13336;DHT22;6737;51.480;11.962;2023-07-20T04:25:03;15.80;99.90
13336;DHT22;6737;51.480;11.962;2023-07-20T04:27:29;15.90;99.90
13336;DHT22;6737;51.480;11.962;2023-07-20T04:29:55;15.90;99.90
13336;DHT22;6737;51.480;11.962;2023-07-20T04:32:21;15.90;99.90
13336;DHT22;6737;51.480;11.962;2023-07-20T04:34:46;15.90;99.90
13336;DHT22;6737;51.480;11.962;2023-07-20T04:37:12;16.00;99.90
13336;DHT22;6737;51.480;11.962;2023-07-20T04:39:38;16.00;99.90
13336;DHT22;6737;51.480;11.962;2023-07-20T04:42:04;16.00;99.90
13336;DHT22;6737;51.480;11.962;2023-07-20T04:44:30;16.00;99.90
13336;DHT22;6737;51.480;11.962;2023-07-20T04:46:56;16.10;99.90
13336;DHT22;6737;51.480;11.962;2023-07-20T04:49:21;16.00;99.90
13336;DHT22;6737;51.480;11.962;2023-07-20T04:51:47;16.00;99.90
13336;DHT22;6737;51.480;11.962;2023-07-20T04:54:13;16.00;99.90
13336;DHT22;6737;51.480;11.962;2023-07-20T04:56:39;16.10;99.90
13336;DHT22;6737;51.480;11.962;2023-07-20T04:59:05;16.10;99.90
13336;DHT22;6737;51.480;11.962;2023-07-20T05:01:30;16.10;99.90
13336;DHT22;6737;51.480;11.962;2023-07-20T05:03:56;16.10;99.90
13336;DHT22;6737;51.480;11.962;2023-07-20T05:06:22;16.10;99.90
13336;DHT22;6737;51.480;11.962;2023-07-20T05:08:48;16.10;99.90
13336;DHT22;6737;51.480;11.962;2023-07-20T05:11:13;16.10;99.90
13336;DHT22;6737;51.480;11.962;2023-07-20T05:13:40;16.10;99.90
13336;DHT22;6737;51.480;11.962;2023-07-20T05:16:06;16.00;99.90
13336;DHT22;6737;51.480;11.962;2023-07-20T05:18:31;16.00;99.90
13336;DHT22;6737;51.480;11.962;2023-07-20T05:20:57;16.00;99.90
13336;DHT22;6737;51.480;11.962;2023-07-20T05:23:23;16.00;99.90
13336;DHT22;6737;51.480;11.962;2023-07-20T05:25:56;16.00;99.90
13336;DHT22;6737;51.480;11.962;2023-07-20T05:28:25;16.00;99.90
13336;DHT22;6737;51.480;11.962;2023-07-20T05:30:52;16.00;99.90
13336;DHT22;6737;51.480;11.962;2023-07-20T05:33:19;16.00;99.90
13336;DHT22;6737;51.480;11.962;2023-07-20T05:35:45;16.10;99.90
13336;DHT22;6737;51.480;11.962;2023-07-20T05:38:11;16.10;99.90
13336;DHT22;6737;51.480;11.962;2023-07-20T05:40:40;16.20;99.90
13336;DHT22;6737;51.480;11.962;2023-07-20T05:43:06;16.20;99.90
13336;DHT22;6737;51.480;11.962;2023-07-20T05:45:32;16.20;99.90
13336;DHT22;6737;51.480;11.962;2023-07-20T05:47:58;16.10;99.90
13336;DHT22;6737;51.480;11.962;2023-07-20T05:50:24;16.20;99.90
13336;DHT22;6737;51.480;11.962;2023-07-20T05:52:52;16.10;99.90
13336;DHT22;6737;51.480;11.962;2023-07-20T05:55:18;16.10;99.90
13336;DHT22;6737;51.480;11.962;2023-07-20T05:57:44;16.00;99.90
13336;DHT22;6737;51.480;11.962;2023-07-20T06:00:10;16.00;99.90
13336;DHT22;6737;51.480;11.962;2023-07-20T06:02:38;16.10;99.90
13336;DHT22;6737;51.480;11.962;2023-07-20T06:05:06;16.10;99.90
13336;DHT22;6737;51.480;11.962;2023-07-20T06:07:36;16.10;99.90
13336;DHT22;6737;51.480;11.962;2023-07-20T06:10:02;16.10;99.90
13336;DHT22;6737;51.480;11.962;2023-07-20T06:12:28;16.20;99.90
13336;DHT22;6737;51.480;11.962;2023-07-20T06:14:53;16.20;99.90
13336;DHT22;6737;51.480;11.962;2023-07-20T06:17:19;16.20;99.90
13336;DHT22;6737;51.480;11.962;2023-07-20T06:19:45;16.20;99.90
13336;DHT22;6737;51.480;11.962;2023-07-20T06:22:11;16.10;99.90
13336;DHT22;6737;51.480;11.962;2023-07-20T06:24:37;16.20;99.90
13336;DHT22;6737;51.480;11.962;2023-07-20T06:27:03;16.20;99.90
13336;DHT22;6737;51.480;11.962;2023-07-20T06:29:31;16.20;99.90
13336;DHT22;6737;51.480;11.962;2023-07-20T06:31:57;16.20;99.90
13336;DHT22;6737;51.480;11.962;2023-07-20T06:34:23;16.20;99.90
13336;DHT22;6737;51.480;11.962;2023-07-20T06:36:49;16.30;99.90
13336;DHT22;6737;51.480;11.962;2023-07-20T06:39:14;16.30;99.90
13336;DHT22;6737;51.480;11.962;2023-07-20T06:41:40;16.30;99.90
13336;DHT22;6737;51.480;11.962;2023-07-20T06:44:06;16.40;99.90
13336;DHT22;6737;51.480;11.962;2023-07-20T06:46:33;16.40;99.90
13336;DHT22;6737;51.480;11.962;2023-07-20T06:48:59;16.40;99.90
13336;DHT22;6737;51.480;11.962;2023-07-20T06:51:25;16.30;99.90
13336;DHT22;6737;51.480;11.962;2023-07-20T06:53:51;16.20;99.90
13336;DHT22;6737;51.480;11.962;2023-07-20T06:56:16;16.20;99.90
13336;DHT22;6737;51.480;11.962;2023-07-20T06:58:42;16.20;99.90
13336;DHT22;6737;51.480;11.962;2023-07-20T07:01:16;16.40;99.90
13336;DHT22;6737;51.480;11.962;2023-07-20T07:03:51;16.50;99.90
13336;DHT22;6737;51.480;11.962;2023-07-20T07:06:18;16.50;99.90
13336;DHT22;6737;51.480;11.962;2023-07-20T07:08:46;16.50;99.90
13336;DHT22;6737;51.480;11.962;2023-07-20T07:11:12;16.50;99.90
13336;DHT22;6737;51.480;11.962;2023-07-20T07:13:38;16.50;99.90
13336;DHT22;6737;51.480;11.962;2023-07-20T07:16:04;16.50;99.90
13336;DHT22;6737;51.480;11.962;2023-07-20T07:18:30;16.60;99.90
13336;DHT22;6737;51.480;11.962;2023-07-20T07:20:55;16.60;99.90
13336;DHT22;6737;51.480;11.962;2023-07-20T07:23:21;16.70;99.90
13336;DHT22;6737;51.480;11.962;2023-07-20T07:25:47;16.80;99.90
13336;DHT22;6737;51.480;11.962;2023-07-20T07:28:13;17.00;99.90
13336;DHT22;6737;51.480;11.962;2023-07-20T07:30:39;17.10;99.90
13336;DHT22;6737;51.480;11.962;2023-07-20T07:33:05;17.20;99.90
13336;DHT22;6737;51.480;11.962;2023-07-20T07:35:31;17.20;99.90
13336;DHT22;6737;51.480;11.962;2023-07-20T07:37:56;17.20;99.90
13336;DHT22;6737;51.480;11.962;2023-07-20T07:40:22;17.20;99.90
13336;DHT22;6737;51.480;11.962;2023-07-20T07:42:48;17.20;99.90
13336;DHT22;6737;51.480;11.962;2023-07-20T07:45:14;17.20;99.90
13336;DHT22;6737;51.480;11.962;2023-07-20T07:47:40;17.20;99.90
13336;DHT22;6737;51.480;11.962;2023-07-20T07:50:06;17.20;99.90
13336;DHT22;6737;51.480;11.962;2023-07-20T07:52:32;17.10;99.90
13336;DHT22;6737;51.480;11.962;2023-07-20T07:54:57;17.10;99.90
13336;DHT22;6737;51.480;11.962;2023-07-20T07:57:23;17.20;99.90
13336;DHT22;6737;51.480;11.962;2023-07-20T07:59:49;17.20;99.90
13336;DHT22;6737;51.480;11.962;2023-07-20T08:02:15;17.20;99.90
13336;DHT22;6737;51.480;11.962;2023-07-20T08:04:41;17.30;99.90
13336;DHT22;6737;51.480;11.962;2023-07-20T08:07:07;17.30;99.90
13336;DHT22;6737;51.480;11.962;2023-07-20T08:09:33;17.40;99.90
13336;DHT22;6737;51.480;11.962;2023-07-20T08:11:58;17.50;99.90
13336;DHT22;6737;51.480;11.962;2023-07-20T08:14:25;17.50;99.90
13336;DHT22;6737;51.480;11.962;2023-07-20T08:16:51;17.50;99.90
13336;DHT22;6737;51.480;11.962;2023-07-20T08:19:17;17.60;99.90
13336;DHT22;6737;51.480;11.962;2023-07-20T08:21:43;17.70;99.90
13336;DHT22;6737;51.480;11.962;2023-07-20T08:24:08;17.70;99.90
13336;DHT22;6737;51.480;11.962;2023-07-20T08:26:34;17.80;99.90
13336;DHT22;6737;51.480;11.962;2023-07-20T08:29:00;17.80;99.90
13336;DHT22;6737;51.480;11.962;2023-07-20T08:31:26;17.90;99.90
13336;DHT22;6737;51.480;11.962;2023-07-20T08:33:54;18.00;99.90
13336;DHT22;6737;51.480;11.962;2023-07-20T08:36:19;18.00;99.90
13336;DHT22;6737;51.480;11.962;2023-07-20T08:38:45;18.00;99.90
13336;DHT22;6737;51.480;11.962;2023-07-20T08:41:11;18.00;99.90
13336;DHT22;6737;51.480;11.962;2023-07-20T08:43:38;18.00;99.90
13336;DHT22;6737;51.480;11.962;2023-07-20T08:46:04;17.90;99.90
13336;DHT22;6737;51.480;11.962;2023-07-20T08:48:31;17.80;99.90
13336;DHT22;6737;51.480;11.962;2023-07-20T08:50:58;17.70;99.90
13336;DHT22;6737;51.480;11.962;2023-07-20T08:53:27;17.60;99.90
13336;DHT22;6737;51.480;11.962;2023-07-20T08:55:53;17.50;99.90
13336;DHT22;6737;51.480;11.962;2023-07-20T08:58:20;17.40;99.90
13336;DHT22;6737;51.480;11.962;2023-07-20T09:00:46;17.40;99.90
13336;DHT22;6737;51.480;11.962;2023-07-20T09:03:18;17.20;99.90
13336;DHT22;6737;51.480;11.962;2023-07-20T09:05:45;17.10;99.90
13336;DHT22;6737;51.480;11.962;2023-07-20T09:08:11;17.00;99.90
13336;DHT22;6737;51.480;11.962;2023-07-20T09:10:36;17.10;99.90
13336;DHT22;6737;51.480;11.962;2023-07-20T09:13:02;17.10;99.90
13336;DHT22;6737;51.480;11.962;2023-07-20T09:15:29;17.00;99.90
13336;DHT22;6737;51.480;11.962;2023-07-20T09:17:55;16.90;99.90
13336;DHT22;6737;51.480;11.962;2023-07-20T09:20:21;16.90;99.90
13336;DHT22;6737;51.480;11.962;2023-07-20T09:22:47;16.80;99.90
13336;DHT22;6737;51.480;11.962;2023-07-20T09:25:14;16.70;99.90
13336;DHT22;6737;51.480;11.962;2023-07-20T09:27:42;16.60;99.90
13336;DHT22;6737;51.480;11.962;2023-07-20T09:30:09;16.60;99.90
13336;DHT22;6737;51.480;11.962;2023-07-20T09:35:07;16.40;99.90
13336;DHT22;6737;51.480;11.962;2023-07-20T09:37:38;16.30;99.90
13336;DHT22;6737;51.480;11.962;2023-07-20T09:40:07;16.20;99.90
13336;DHT22;6737;51.480;11.962;2023-07-20T09:42:36;16.30;99.90
13336;DHT22;6737;51.480;11.962;2023-07-20T09:45:03;16.40;99.90
13336;DHT22;6737;51.480;11.962;2023-07-20T09:47:30;16.50;99.90
13336;DHT22;6737;51.480;11.962;2023-07-20T09:49:59;16.50;99.90
13336;DHT22;6737;51.480;11.962;2023-07-20T09:52:26;16.50;99.90
13336;DHT22;6737;51.480;11.962;2023-07-20T09:54:52;16.60;99.90
13336;DHT22;6737;51.480;11.962;2023-07-20T09:57:21;16.50;99.90
13336;DHT22;6737;51.480;11.962;2023-07-20T09:59:47;16.60;99.90
13336;DHT22;6737;51.480;11.962;2023-07-20T10:02:20;16.70;99.90
13336;DHT22;6737;51.480;11.962;2023-07-20T10:04:49;16.90;99.90
13336;DHT22;6737;51.480;11.962;2023-07-20T10:07:19;16.90;99.90
13336;DHT22;6737;51.480;11.962;2023-07-20T10:09:50;17.00;99.90
13336;DHT22;6737;51.480;11.962;2023-07-20T10:12:19;17.00;99.90
13336;DHT22;6737;51.480;11.962;2023-07-20T10:15:11;17.20;99.90
13336;DHT22;6737;51.480;11.962;2023-07-20T10:17:41;17.40;99.90
13336;DHT22;6737;51.480;11.962;2023-07-20T10:20:16;17.40;99.90
13336;DHT22;6737;51.480;11.962;2023-07-20T10:22:46;17.30;99.90
13336;DHT22;6737;51.480;11.962;2023-07-20T10:25:14;17.20;99.90
13336;DHT22;6737;51.480;11.962;2023-07-20T10:27:40;17.20;99.90
13336;DHT22;6737;51.480;11.962;2023-07-20T10:30:07;17.10;99.90
13336;DHT22;6737;51.480;11.962;2023-07-20T10:32:33;17.10;99.90
13336;DHT22;6737;51.480;11.962;2023-07-20T10:34:59;17.00;99.90
13336;DHT22;6737;51.480;11.962;2023-07-20T10:37:50;17.00;99.90
13336;DHT22;6737;51.480;11.962;2023-07-20T10:40:30;17.00;99.90
13336;DHT22;6737;51.480;11.962;2023-07-20T10:43:02;17.00;99.90
13336;DHT22;6737;51.480;11.962;2023-07-20T10:48:05;17.00;99.90
13336;DHT22;6737;51.480;11.962;2023-07-20T10:50:33;17.00;99.90
13336;DHT22;6737;51.480;11.962;2023-07-20T10:53:17;17.00;99.90
13336;DHT22;6737;51.480;11.962;2023-07-20T10:55:43;17.10;99.90
13336;DHT22;6737;51.480;11.962;2023-07-20T10:58:15;17.20;99.90
13336;DHT22;6737;51.480;11.962;2023-07-20T11:00:58;17.40;99.90
13336;DHT22;6737;51.480;11.962;2023-07-20T11:03:33;17.50;99.90
13336;DHT22;6737;51.480;11.962;2023-07-20T11:06:29;17.50;99.90
13336;DHT22;6737;51.480;11.962;2023-07-20T11:08:46;17.40;99.90
13336;DHT22;6737;51.480;11.962;2023-07-20T11:11:46;17.30;99.90
13336;DHT22;6737;51.480;11.962;2023-07-20T11:14:25;17.30;99.90
13336;DHT22;6737;51.480;11.962;2023-07-20T11:16:52;17.30;99.90
13336;DHT22;6737;51.480;11.962;2023-07-20T11:19:25;17.40;99.90
13336;DHT22;6737;51.480;11.962;2023-07-20T11:21:54;17.40;99.90
13336;DHT22;6737;51.480;11.962;2023-07-20T11:24:20;17.40;99.90
13336;DHT22;6737;51.480;11.962;2023-07-20T11:26:51;17.50;99.90
13336;DHT22;6737;51.480;11.962;2023-07-20T11:29:19;17.50;99.90
13336;DHT22;6737;51.480;11.962;2023-07-20T11:31:46;17.60;99.90
13336;DHT22;6737;51.480;11.962;2023-07-20T11:34:15;17.60;99.90
13336;DHT22;6737;51.480;11.962;2023-07-20T11:36:42;17.50;99.90
13336;DHT22;6737;51.480;11.962;2023-07-20T11:39:10;17.50;99.90
13336;DHT22;6737;51.480;11.962;2023-07-20T11:41:36;17.60;99.90
13336;DHT22;6737;51.480;11.962;2023-07-20T11:44:04;17.80;99.90
13336;DHT22;6737;51.480;11.962;2023-07-20T11:46:32;18.10;99.90
13336;DHT22;6737;51.480;11.962;2023-07-20T11:48:58;18.20;99.90
13336;DHT22;6737;51.480;11.962;2023-07-20T11:51:30;18.20;99.90
13336;DHT22;6737;51.480;11.962;2023-07-20T11:53:57;18.30;99.90
13336;DHT22;6737;51.480;11.962;2023-07-20T11:56:26;18.10;99.90
13336;DHT22;6737;51.480;11.962;2023-07-20T11:58:56;18.10;99.90
13336;DHT22;6737;51.480;11.962;2023-07-20T12:01:25;18.10;99.90
13336;DHT22;6737;51.480;11.962;2023-07-20T12:07:32;18.00;99.90
13336;DHT22;6737;51.480;11.962;2023-07-20T12:10:12;18.10;99.90
13336;DHT22;6737;51.480;11.962;2023-07-20T12:12:41;18.20;99.90
13336;DHT22;6737;51.480;11.962;2023-07-20T12:15:20;18.30;99.90
13336;DHT22;6737;51.480;11.962;2023-07-20T12:17:49;18.30;99.90
13336;DHT22;6737;51.480;11.962;2023-07-20T12:22:58;18.50;99.90
13336;DHT22;6737;51.480;11.962;2023-07-20T12:25:30;18.50;99.90
13336;DHT22;6737;51.480;11.962;2023-07-20T12:28:00;18.80;99.90
13336;DHT22;6737;51.480;11.962;2023-07-20T12:30:28;19.00;99.90
13336;DHT22;6737;51.480;11.962;2023-07-20T12:32:54;19.10;99.90
13336;DHT22;6737;51.480;11.962;2023-07-20T12:35:20;19.10;99.90
13336;DHT22;6737;51.480;11.962;2023-07-20T12:37:45;19.20;99.90
13336;DHT22;6737;51.480;11.962;2023-07-20T12:40:16;19.20;99.90
13336;DHT22;6737;51.480;11.962;2023-07-20T12:42:43;19.20;99.90
13336;DHT22;6737;51.480;11.962;2023-07-20T12:45:10;19.20;99.90
13336;DHT22;6737;51.480;11.962;2023-07-20T12:47:37;19.10;99.90
13336;DHT22;6737;51.480;11.962;2023-07-20T12:50:03;18.90;99.90
13336;DHT22;6737;51.480;11.962;2023-07-20T12:52:35;18.80;99.90
13336;DHT22;6737;51.480;11.962;2023-07-20T12:55:02;18.70;99.90
13336;DHT22;6737;51.480;11.962;2023-07-20T12:57:28;18.60;99.90
13336;DHT22;6737;51.480;11.962;2023-07-20T12:59:53;18.60;99.90
13336;DHT22;6737;51.480;11.962;2023-07-20T13:02:19;18.60;99.90
13336;DHT22;6737;51.480;11.962;2023-07-20T13:04:45;18.50;99.90
13336;DHT22;6737;51.480;11.962;2023-07-20T13:07:11;18.60;99.90
13336;DHT22;6737;51.480;11.962;2023-07-20T13:09:39;18.70;99.90
13336;DHT22;6737;51.480;11.962;2023-07-20T13:12:06;18.70;99.90
13336;DHT22;6737;51.480;11.962;2023-07-20T13:14:31;18.80;99.90
13336;DHT22;6737;51.480;11.962;2023-07-20T13:16:57;18.80;99.90
13336;DHT22;6737;51.480;11.962;2023-07-20T13:19:23;18.90;99.90
13336;DHT22;6737;51.480;11.962;2023-07-20T13:21:49;19.00;99.90
13336;DHT22;6737;51.480;11.962;2023-07-20T13:24:15;19.00;99.90
13336;DHT22;6737;51.480;11.962;2023-07-20T13:26:41;19.10;99.90
13336;DHT22;6737;51.480;11.962;2023-07-20T13:29:06;19.20;99.90
13336;DHT22;6737;51.480;11.962;2023-07-20T13:31:32;19.30;99.90
13336;DHT22;6737;51.480;11.962;2023-07-20T13:33:58;19.30;99.90
13336;DHT22;6737;51.480;11.962;2023-07-20T13:36:24;19.20;99.90
13336;DHT22;6737;51.480;11.962;2023-07-20T13:38:50;19.20;99.90
13336;DHT22;6737;51.480;11.962;2023-07-20T13:41:16;19.20;99.90
13336;DHT22;6737;51.480;11.962;2023-07-20T13:43:42;19.20;99.90
13336;DHT22;6737;51.480;11.962;2023-07-20T13:46:08;19.20;99.90
13336;DHT22;6737;51.480;11.962;2023-07-20T13:48:34;19.30;99.90
13336;DHT22;6737;51.480;11.962;2023-07-20T13:50:59;19.40;99.90
13336;DHT22;6737;51.480;11.962;2023-07-20T13:53:25;19.50;99.90
13336;DHT22;6737;51.480;11.962;2023-07-20T13:55:53;19.60;99.90
13336;DHT22;6737;51.480;11.962;2023-07-20T13:58:19;19.80;99.90
13336;DHT22;6737;51.480;11.962;2023-07-20T14:00:44;19.90;99.90
13336;DHT22;6737;51.480;11.962;2023-07-20T14:03:10;20.20;99.90
13336;DHT22;6737;51.480;11.962;2023-07-20T14:05:36;20.30;99.90
13336;DHT22;6737;51.480;11.962;2023-07-20T14:08:02;20.40;99.90
13336;DHT22;6737;51.480;11.962;2023-07-20T14:10:27;20.40;99.90
13336;DHT22;6737;51.480;11.962;2023-07-20T14:12:53;20.50;99.90
13336;DHT22;6737;51.480;11.962;2023-07-20T14:15:19;20.60;99.90
13336;DHT22;6737;51.480;11.962;2023-07-20T14:17:45;20.60;99.90
13336;DHT22;6737;51.480;11.962;2023-07-20T14:20:11;20.70;99.90
13336;DHT22;6737;51.480;11.962;2023-07-20T14:22:37;20.80;99.90
13336;DHT22;6737;51.480;11.962;2023-07-20T14:25:03;20.70;99.90
13336;DHT22;6737;51.480;11.962;2023-07-20T14:27:29;20.70;99.90
13336;DHT22;6737;51.480;11.962;2023-07-20T14:29:55;20.70;99.90
13336;DHT22;6737;51.480;11.962;2023-07-20T14:32:21;20.70;99.90
13336;DHT22;6737;51.480;11.962;2023-07-20T14:34:47;20.70;99.90
13336;DHT22;6737;51.480;11.962;2023-07-20T14:37:12;20.60;99.90
13336;DHT22;6737;51.480;11.962;2023-07-20T14:39:38;20.60;99.90
13336;DHT22;6737;51.480;11.962;2023-07-20T14:42:04;20.40;99.90
13336;DHT22;6737;51.480;11.962;2023-07-20T14:44:30;20.30;99.90
13336;DHT22;6737;51.480;11.962;2023-07-20T14:47:03;20.10;99.90
13336;DHT22;6737;51.480;11.962;2023-07-20T14:49:30;20.00;99.90
13336;DHT22;6737;51.480;11.962;2023-07-20T14:51:56;19.90;99.90
13336;DHT22;6737;51.480;11.962;2023-07-20T14:54:22;19.80;99.90
13336;DHT22;6737;51.480;11.962;2023-07-20T14:56:51;19.80;99.90
13336;DHT22;6737;51.480;11.962;2023-07-20T14:59:19;20.00;99.90
13336;DHT22;6737;51.480;11.962;2023-07-20T15:01:45;20.10;99.90
13336;DHT22;6737;51.480;11.962;2023-07-20T15:04:14;20.10;99.90
13336;DHT22;6737;51.480;11.962;2023-07-20T15:06:40;20.00;99.90
13336;DHT22;6737;51.480;11.962;2023-07-20T15:09:07;19.90;99.90
13336;DHT22;6737;51.480;11.962;2023-07-20T15:11:33;19.90;99.90
13336;DHT22;6737;51.480;11.962;2023-07-20T15:13:59;19.80;99.90
13336;DHT22;6737;51.480;11.962;2023-07-20T15:16:25;19.90;99.90
13336;DHT22;6737;51.480;11.962;2023-07-20T15:18:51;20.00;99.90
13336;DHT22;6737;51.480;11.962;2023-07-20T15:21:17;20.00;99.90
13336;DHT22;6737;51.480;11.962;2023-07-20T15:23:43;19.90;99.90
13336;DHT22;6737;51.480;11.962;2023-07-20T15:26:09;20.00;99.90
13336;DHT22;6737;51.480;11.962;2023-07-20T15:28:37;20.00;99.90
13336;DHT22;6737;51.480;11.962;2023-07-20T15:31:04;20.10;99.90
13336;DHT22;6737;51.480;11.962;2023-07-20T15:33:31;20.30;99.90
13336;DHT22;6737;51.480;11.962;2023-07-20T15:35:57;20.50;99.90
13336;DHT22;6737;51.480;11.962;2023-07-20T15:38:23;20.50;99.90
13336;DHT22;6737;51.480;11.962;2023-07-20T15:40:49;20.60;99.90
13336;DHT22;6737;51.480;11.962;2023-07-20T15:43:15;20.60;99.90
13336;DHT22;6737;51.480;11.962;2023-07-20T15:45:46;20.60;99.90
13336;DHT22;6737;51.480;11.962;2023-07-20T15:48:15;20.70;99.90
13336;DHT22;6737;51.480;11.962;2023-07-20T15:50:40;20.70;99.90
13336;DHT22;6737;51.480;11.962;2023-07-20T15:53:06;20.60;99.90